sensor_id;sensor_type;location;lat;lon;timestamp;P1;durP1;ratioP1;P2;durP2;ratioP2
7013;SDS011;3547;50.774;12.918;2023-08-17T00:00:18;6.82;;;6.07;;
7013;SDS011;3547;50.774;12.918;2023-08-17T00:02:44;7.72;;;6.50;;
7013;SDS011;3547;50.774;12.918;2023-08-17T00:05:11;8.10;;;6.43;;
7013;SDS011;3547;50.774;12.918;2023-08-17T00:07:40;8.98;;;6.15;;
7013;SDS011;3547;50.774;12.918;2023-08-17T00:10:09;8.43;;;6.65;;
7013;SDS011;3547;50.774;12.918;2023-08-17T00:12:38;8.50;;;6.80;;
7013;SDS011;3547;50.774;12.918;2023-08-17T00:15:05;9.70;;;6.45;;
7013;SDS011;3547;50.774;12.918;2023-08-17T00:17:32;9.02;;;7.00;;
7013;SDS011;3547;50.774;12.918;2023-08-17T00:19:58;6.95;;;6.13;;
7013;SDS011;3547;50.774;12.918;2023-08-17T00:22:24;8.13;;;7.00;;
7013;SDS011;3547;50.774;12.918;2023-08-17T00:24:51;9.15;;;6.03;;
7013;SDS011;3547;50.774;12.918;2023-08-17T00:27:17;6.90;;;6.20;;
7013;SDS011;3547;50.774;12.918;2023-08-17T00:29:43;9.10;;;6.47;;
7013;SDS011;3547;50.774;12.918;2023-08-17T00:32:13;8.23;;;5.72;;
7013;SDS011;3547;50.774;12.918;2023-08-17T00:34:39;6.72;;;5.82;;
7013;SDS011;3547;50.774;12.918;2023-08-17T00:37:08;6.22;;;5.63;;
7013;SDS011;3547;50.774;12.918;2023-08-17T00:39:35;7.35;;;5.88;;
7013;SDS011;3547;50.774;12.918;2023-08-17T00:42:02;6.63;;;5.90;;
7013;SDS011;3547;50.774;12.918;2023-08-17T00:44:31;7.70;;;6.15;;
7013;SDS011;3547;50.774;12.918;2023-08-17T00:47:00;6.75;;;5.93;;
7013;SDS011;3547;50.774;12.918;2023-08-17T00:49:30;6.95;;;6.20;;
7013;SDS011;3547;50.774;12.918;2023-08-17T00:52:01;8.63;;;6.60;;
7013;SDS011;3547;50.774;12.918;2023-08-17T00:54:28;9.00;;;6.55;;
7013;SDS011;3547;50.774;12.918;2023-08-17T00:56:55;7.88;;;5.97;;
7013;SDS011;3547;50.774;12.918;2023-08-17T00:59:22;7.95;;;6.45;;
7013;SDS011;3547;50.774;12.918;2023-08-17T01:01:49;7.70;;;6.43;;
7013;SDS011;3547;50.774;12.918;2023-08-17T01:04:21;7.55;;;6.38;;
7013;SDS011;3547;50.774;12.918;2023-08-17T01:06:47;6.55;;;5.85;;
7013;SDS011;3547;50.774;12.918;2023-08-17T01:09:14;8.57;;;6.40;;
7013;SDS011;3547;50.774;12.918;2023-08-17T01:14:30;7.03;;;5.95;;
7013;SDS011;3547;50.774;12.918;2023-08-17T01:17:39;6.72;;;5.32;;
7013;SDS011;3547;50.774;12.918;2023-08-17T01:20:21;7.63;;;6.20;;
7013;SDS011;3547;50.774;12.918;2023-08-17T01:22:55;8.05;;;5.95;;
7013;SDS011;3547;50.774;12.918;2023-08-17T01:25:26;7.05;;;5.60;;
7013;SDS011;3547;50.774;12.918;2023-08-17T01:27:57;7.07;;;5.65;;
7013;SDS011;3547;50.774;12.918;2023-08-17T01:30:28;6.47;;;5.80;;
7013;SDS011;3547;50.774;12.918;2023-08-17T01:33:09;7.25;;;6.40;;
7013;SDS011;3547;50.774;12.918;2023-08-17T01:35:48;8.43;;;7.22;;
7013;SDS011;3547;50.774;12.918;2023-08-17T01:38:37;7.45;;;5.78;;
7013;SDS011;3547;50.774;12.918;2023-08-17T01:41:05;6.82;;;6.20;;
7013;SDS011;3547;50.774;12.918;2023-08-17T01:43:43;7.95;;;6.55;;
7013;SDS011;3547;50.774;12.918;2023-08-17T01:46:14;6.85;;;6.15;;
7013;SDS011;3547;50.774;12.918;2023-08-17T01:48:45;12.70;;;7.07;;
7013;SDS011;3547;50.774;12.918;2023-08-17T01:51:15;9.85;;;7.07;;
7013;SDS011;3547;50.774;12.918;2023-08-17T01:53:57;8.68;;;6.45;;
7013;SDS011;3547;50.774;12.918;2023-08-17T01:56:24;10.05;;;6.20;;
7013;SDS011;3547;50.774;12.918;2023-08-17T01:58:53;7.15;;;5.90;;
7013;SDS011;3547;50.774;12.918;2023-08-17T02:01:23;10.68;;;6.43;;
7013;SDS011;3547;50.774;12.918;2023-08-17T02:03:50;7.30;;;6.50;;
7013;SDS011;3547;50.774;12.918;2023-08-17T02:06:18;6.97;;;5.80;;
7013;SDS011;3547;50.774;12.918;2023-08-17T02:08:52;6.57;;;5.80;;
7013;SDS011;3547;50.774;12.918;2023-08-17T02:11:22;7.07;;;6.10;;
7013;SDS011;3547;50.774;12.918;2023-08-17T02:13:51;6.13;;;5.53;;
7013;SDS011;3547;50.774;12.918;2023-08-17T02:16:47;10.52;;;6.22;;
7013;SDS011;3547;50.774;12.918;2023-08-17T02:19:19;7.45;;;6.13;;
7013;SDS011;3547;50.774;12.918;2023-08-17T02:21:46;7.45;;;6.07;;
7013;SDS011;3547;50.774;12.918;2023-08-17T02:24:12;7.45;;;6.05;;
7013;SDS011;3547;50.774;12.918;2023-08-17T02:26:42;7.43;;;5.47;;
7013;SDS011;3547;50.774;12.918;2023-08-17T02:29:13;6.38;;;5.30;;
7013;SDS011;3547;50.774;12.918;2023-08-17T02:31:41;8.35;;;6.82;;
7013;SDS011;3547;50.774;12.918;2023-08-17T02:34:10;11.02;;;8.98;;
7013;SDS011;3547;50.774;12.918;2023-08-17T02:36:39;10.27;;;6.78;;
7013;SDS011;3547;50.774;12.918;2023-08-17T02:39:05;7.63;;;6.65;;
7013;SDS011;3547;50.774;12.918;2023-08-17T02:41:35;6.72;;;6.13;;
7013;SDS011;3547;50.774;12.918;2023-08-17T02:44:02;6.00;;;5.40;;
7013;SDS011;3547;50.774;12.918;2023-08-17T02:46:33;9.52;;;6.53;;
7013;SDS011;3547;50.774;12.918;2023-08-17T02:49:01;7.95;;;6.03;;
7013;SDS011;3547;50.774;12.918;2023-08-17T02:51:28;7.80;;;5.93;;
7013;SDS011;3547;50.774;12.918;2023-08-17T02:53:58;6.53;;;5.55;;
7013;SDS011;3547;50.774;12.918;2023-08-17T02:56:24;6.57;;;5.90;;
7013;SDS011;3547;50.774;12.918;2023-08-17T02:58:51;8.02;;;6.38;;
7013;SDS011;3547;50.774;12.918;2023-08-17T03:01:18;7.47;;;6.22;;
7013;SDS011;3547;50.774;12.918;2023-08-17T03:03:44;9.68;;;6.90;;
7013;SDS011;3547;50.774;12.918;2023-08-17T03:06:11;8.07;;;6.32;;
7013;SDS011;3547;50.774;12.918;2023-08-17T03:12:00;8.60;;;5.93;;
7013;SDS011;3547;50.774;12.918;2023-08-17T03:14:26;7.13;;;6.43;;
7013;SDS011;3547;50.774;12.918;2023-08-17T03:16:55;6.88;;;6.07;;
7013;SDS011;3547;50.774;12.918;2023-08-17T03:19:21;11.52;;;7.63;;
7013;SDS011;3547;50.774;12.918;2023-08-17T03:21:47;8.23;;;6.68;;
7013;SDS011;3547;50.774;12.918;2023-08-17T03:24:27;9.43;;;6.32;;
7013;SDS011;3547;50.774;12.918;2023-08-17T03:26:53;7.72;;;6.25;;
7013;SDS011;3547;50.774;12.918;2023-08-17T03:29:23;11.00;;;5.93;;
7013;SDS011;3547;50.774;12.918;2023-08-17T03:31:55;6.93;;;6.22;;
7013;SDS011;3547;50.774;12.918;2023-08-17T03:34:22;8.00;;;7.10;;
7013;SDS011;3547;50.774;12.918;2023-08-17T03:36:57;6.60;;;5.97;;
7013;SDS011;3547;50.774;12.918;2023-08-17T03:39:23;9.80;;;7.57;;
7013;SDS011;3547;50.774;12.918;2023-08-17T03:41:50;10.27;;;7.03;;
7013;SDS011;3547;50.774;12.918;2023-08-17T03:44:17;8.32;;;7.38;;
7013;SDS011;3547;50.774;12.918;2023-08-17T03:46:52;10.52;;;7.57;;
7013;SDS011;3547;50.774;12.918;2023-08-17T03:49:26;11.93;;;7.43;;
7013;SDS011;3547;50.774;12.918;2023-08-17T03:51:56;9.27;;;6.68;;
7013;SDS011;3547;50.774;12.918;2023-08-17T03:54:25;10.85;;;7.00;;
7013;SDS011;3547;50.774;12.918;2023-08-17T03:56:52;9.55;;;7.82;;
7013;SDS011;3547;50.774;12.918;2023-08-17T03:59:18;12.02;;;9.35;;
7013;SDS011;3547;50.774;12.918;2023-08-17T04:01:47;11.13;;;8.43;;
7013;SDS011;3547;50.774;12.918;2023-08-17T04:04:20;11.48;;;8.07;;
7013;SDS011;3547;50.774;12.918;2023-08-17T04:06:54;12.73;;;7.47;;
7013;SDS011;3547;50.774;12.918;2023-08-17T04:09:26;11.07;;;7.88;;
7013;SDS011;3547;50.774;12.918;2023-08-17T04:12:01;10.82;;;8.15;;
7013;SDS011;3547;50.774;12.918;2023-08-17T04:14:30;7.65;;;6.88;;
7013;SDS011;3547;50.774;12.918;2023-08-17T04:16:57;8.07;;;6.80;;
7013;SDS011;3547;50.774;12.918;2023-08-17T04:19:26;9.15;;;7.40;;
7013;SDS011;3547;50.774;12.918;2023-08-17T04:21:53;10.80;;;7.13;;
7013;SDS011;3547;50.774;12.918;2023-08-17T04:24:19;10.13;;;8.57;;
7013;SDS011;3547;50.774;12.918;2023-08-17T04:26:46;12.93;;;8.20;;
7013;SDS011;3547;50.774;12.918;2023-08-17T04:29:15;12.63;;;8.52;;
7013;SDS011;3547;50.774;12.918;2023-08-17T04:31:48;12.25;;;8.50;;
7013;SDS011;3547;50.774;12.918;2023-08-17T04:34:17;10.18;;;8.55;;
7013;SDS011;3547;50.774;12.918;2023-08-17T04:36:44;10.05;;;8.52;;
7013;SDS011;3547;50.774;12.918;2023-08-17T04:39:10;10.43;;;8.13;;
7013;SDS011;3547;50.774;12.918;2023-08-17T04:41:46;9.88;;;7.15;;
7013;SDS011;3547;50.774;12.918;2023-08-17T04:44:15;8.82;;;6.97;;
7013;SDS011;3547;50.774;12.918;2023-08-17T04:46:44;9.63;;;6.90;;
7013;SDS011;3547;50.774;12.918;2023-08-17T04:49:11;7.13;;;5.97;;
7013;SDS011;3547;50.774;12.918;2023-08-17T04:51:38;9.80;;;6.32;;
7013;SDS011;3547;50.774;12.918;2023-08-17T04:54:04;9.20;;;6.63;;
7013;SDS011;3547;50.774;12.918;2023-08-17T04:56:31;7.63;;;5.68;;
7013;SDS011;3547;50.774;12.918;2023-08-17T04:59:00;6.80;;;6.10;;
7013;SDS011;3547;50.774;12.918;2023-08-17T05:01:26;8.98;;;5.65;;
7013;SDS011;3547;50.774;12.918;2023-08-17T05:03:52;8.95;;;5.68;;
7013;SDS011;3547;50.774;12.918;2023-08-17T05:06:22;6.55;;;5.40;;
7013;SDS011;3547;50.774;12.918;2023-08-17T05:08:50;6.05;;;5.43;;
7013;SDS011;3547;50.774;12.918;2023-08-17T05:11:16;5.78;;;4.93;;
7013;SDS011;3547;50.774;12.918;2023-08-17T05:13:46;7.45;;;5.13;;
7013;SDS011;3547;50.774;12.918;2023-08-17T05:16:13;12.95;;;5.22;;
7013;SDS011;3547;50.774;12.918;2023-08-17T05:18:45;9.05;;;4.55;;
7013;SDS011;3547;50.774;12.918;2023-08-17T05:21:15;5.15;;;4.22;;
7013;SDS011;3547;50.774;12.918;2023-08-17T05:23:41;4.90;;;4.47;;
7013;SDS011;3547;50.774;12.918;2023-08-17T05:26:08;6.03;;;5.43;;
7013;SDS011;3547;50.774;12.918;2023-08-17T05:28:36;4.45;;;4.05;;
7013;SDS011;3547;50.774;12.918;2023-08-17T05:31:06;5.30;;;4.32;;
7013;SDS011;3547;50.774;12.918;2023-08-17T05:33:32;3.63;;;3.13;;
7013;SDS011;3547;50.774;12.918;2023-08-17T05:35:59;3.45;;;3.15;;
7013;SDS011;3547;50.774;12.918;2023-08-17T05:38:26;3.65;;;3.17;;
7013;SDS011;3547;50.774;12.918;2023-08-17T05:40:56;3.55;;;3.25;;
7013;SDS011;3547;50.774;12.918;2023-08-17T05:43:23;4.55;;;3.25;;
7013;SDS011;3547;50.774;12.918;2023-08-17T05:45:50;4.35;;;2.97;;
7013;SDS011;3547;50.774;12.918;2023-08-17T05:48:19;3.97;;;3.58;;
7013;SDS011;3547;50.774;12.918;2023-08-17T05:50:49;3.78;;;3.38;;
7013;SDS011;3547;50.774;12.918;2023-08-17T05:53:15;5.45;;;3.47;;
7013;SDS011;3547;50.774;12.918;2023-08-17T05:55:47;3.92;;;3.13;;
7013;SDS011;3547;50.774;12.918;2023-08-17T05:58:19;4.05;;;2.90;;
7013;SDS011;3547;50.774;12.918;2023-08-17T06:00:46;3.42;;;3.13;;
7013;SDS011;3547;50.774;12.918;2023-08-17T06:03:12;3.58;;;3.28;;
7013;SDS011;3547;50.774;12.918;2023-08-17T06:05:39;3.90;;;3.25;;
7013;SDS011;3547;50.774;12.918;2023-08-17T06:08:06;3.55;;;3.25;;
7013;SDS011;3547;50.774;12.918;2023-08-17T06:10:32;3.75;;;3.20;;
7013;SDS011;3547;50.774;12.918;2023-08-17T06:12:59;2.80;;;2.58;;
7013;SDS011;3547;50.774;12.918;2023-08-17T06:15:25;3.33;;;2.65;;
7013;SDS011;3547;50.774;12.918;2023-08-17T06:17:52;3.42;;;2.90;;
7013;SDS011;3547;50.774;12.918;2023-08-17T06:20:18;3.25;;;2.75;;
7013;SDS011;3547;50.774;12.918;2023-08-17T06:22:46;5.13;;;3.00;;
7013;SDS011;3547;50.774;12.918;2023-08-17T06:25:13;4.13;;;2.55;;
7013;SDS011;3547;50.774;12.918;2023-08-17T06:27:41;3.03;;;2.72;;
7013;SDS011;3547;50.774;12.918;2023-08-17T06:30:09;3.53;;;2.97;;
7013;SDS011;3547;50.774;12.918;2023-08-17T06:32:36;4.60;;;3.30;;
7013;SDS011;3547;50.774;12.918;2023-08-17T06:35:02;3.50;;;3.20;;
7013;SDS011;3547;50.774;12.918;2023-08-17T06:37:31;4.60;;;3.10;;
7013;SDS011;3547;50.774;12.918;2023-08-17T06:39:59;5.03;;;3.65;;
7013;SDS011;3547;50.774;12.918;2023-08-17T06:42:25;3.88;;;3.58;;
7013;SDS011;3547;50.774;12.918;2023-08-17T06:44:54;4.47;;;3.97;;
7013;SDS011;3547;50.774;12.918;2023-08-17T06:47:22;4.25;;;3.85;;
7013;SDS011;3547;50.774;12.918;2023-08-17T06:49:52;7.10;;;4.20;;
7013;SDS011;3547;50.774;12.918;2023-08-17T06:52:18;6.28;;;4.22;;
7013;SDS011;3547;50.774;12.918;2023-08-17T06:54:47;6.35;;;5.00;;
7013;SDS011;3547;50.774;12.918;2023-08-17T06:57:17;7.10;;;5.18;;
7013;SDS011;3547;50.774;12.918;2023-08-17T06:59:48;7.35;;;5.32;;
7013;SDS011;3547;50.774;12.918;2023-08-17T07:02:15;8.50;;;5.20;;
7013;SDS011;3547;50.774;12.918;2023-08-17T07:04:42;8.50;;;5.18;;
7013;SDS011;3547;50.774;12.918;2023-08-17T07:07:15;6.13;;;4.70;;
7013;SDS011;3547;50.774;12.918;2023-08-17T07:09:42;6.97;;;5.68;;
7013;SDS011;3547;50.774;12.918;2023-08-17T07:12:08;8.93;;;5.70;;
7013;SDS011;3547;50.774;12.918;2023-08-17T07:14:37;6.47;;;5.72;;
7013;SDS011;3547;50.774;12.918;2023-08-17T07:17:07;7.90;;;5.45;;
7013;SDS011;3547;50.774;12.918;2023-08-17T07:19:37;6.75;;;5.57;;
7013;SDS011;3547;50.774;12.918;2023-08-17T07:22:04;6.78;;;4.93;;
7013;SDS011;3547;50.774;12.918;2023-08-17T07:24:31;7.35;;;5.93;;
7013;SDS011;3547;50.774;12.918;2023-08-17T07:26:58;6.20;;;5.47;;
7013;SDS011;3547;50.774;12.918;2023-08-17T07:29:32;7.18;;;6.43;;
7013;SDS011;3547;50.774;12.918;2023-08-17T07:32:05;7.20;;;6.15;;
7013;SDS011;3547;50.774;12.918;2023-08-17T07:34:31;6.80;;;5.35;;
7013;SDS011;3547;50.774;12.918;2023-08-17T07:37:04;8.35;;;6.55;;
7013;SDS011;3547;50.774;12.918;2023-08-17T07:39:32;7.93;;;5.65;;
7013;SDS011;3547;50.774;12.918;2023-08-17T07:42:12;8.57;;;6.28;;
7013;SDS011;3547;50.774;12.918;2023-08-17T07:44:44;9.63;;;7.03;;
7013;SDS011;3547;50.774;12.918;2023-08-17T07:47:10;9.32;;;6.88;;
7013;SDS011;3547;50.774;12.918;2023-08-17T07:49:37;6.50;;;5.80;;
7013;SDS011;3547;50.774;12.918;2023-08-17T07:52:04;9.73;;;6.05;;
7013;SDS011;3547;50.774;12.918;2023-08-17T07:54:31;12.05;;;6.63;;
7013;SDS011;3547;50.774;12.918;2023-08-17T07:57:02;8.75;;;6.28;;
7013;SDS011;3547;50.774;12.918;2023-08-17T07:59:31;7.60;;;6.25;;
7013;SDS011;3547;50.774;12.918;2023-08-17T08:05:23;7.13;;;5.22;;
7013;SDS011;3547;50.774;12.918;2023-08-17T08:07:49;8.30;;;6.28;;
7013;SDS011;3547;50.774;12.918;2023-08-17T08:10:22;8.13;;;6.20;;
7013;SDS011;3547;50.774;12.918;2023-08-17T08:13:40;10.20;;;7.05;;
7013;SDS011;3547;50.774;12.918;2023-08-17T12:34:47;8.63;;;7.00;;
7013;SDS011;3547;50.774;12.918;2023-08-17T12:37:18;7.60;;;6.80;;
7013;SDS011;3547;50.774;12.918;2023-08-17T12:39:46;7.78;;;6.97;;
7013;SDS011;3547;50.774;12.918;2023-08-17T12:42:14;7.93;;;6.72;;
7013;SDS011;3547;50.774;12.918;2023-08-17T12:44:41;7.65;;;6.90;;
7013;SDS011;3547;50.774;12.918;2023-08-17T12:50:29;8.07;;;6.90;;
7013;SDS011;3547;50.774;12.918;2023-08-17T12:52:55;7.00;;;6.30;;
7013;SDS011;3547;50.774;12.918;2023-08-17T12:55:21;9.23;;;6.25;;
7013;SDS011;3547;50.774;12.918;2023-08-17T12:57:48;6.95;;;6.25;;
7013;SDS011;3547;50.774;12.918;2023-08-17T13:00:14;5.78;;;5.28;;
7013;SDS011;3547;50.774;12.918;2023-08-17T13:02:40;5.00;;;4.57;;
7013;SDS011;3547;50.774;12.918;2023-08-17T13:05:07;4.45;;;4.05;;
7013;SDS011;3547;50.774;12.918;2023-08-17T13:07:33;5.53;;;4.00;;
7013;SDS011;3547;50.774;12.918;2023-08-17T13:09:59;4.57;;;4.05;;
7013;SDS011;3547;50.774;12.918;2023-08-17T13:12:25;4.53;;;4.13;;
7013;SDS011;3547;50.774;12.918;2023-08-17T13:14:52;4.10;;;3.75;;
7013;SDS011;3547;50.774;12.918;2023-08-17T13:17:18;5.30;;;3.95;;
7013;SDS011;3547;50.774;12.918;2023-08-17T13:19:44;4.05;;;3.60;;
7013;SDS011;3547;50.774;12.918;2023-08-17T13:22:10;5.05;;;4.55;;
7013;SDS011;3547;50.774;12.918;2023-08-17T13:24:36;4.50;;;3.67;;
7013;SDS011;3547;50.774;12.918;2023-08-17T13:27:03;4.90;;;4.22;;
7013;SDS011;3547;50.774;12.918;2023-08-17T13:29:29;4.40;;;3.97;;
7013;SDS011;3547;50.774;12.918;2023-08-17T13:31:55;5.07;;;4.57;;
7013;SDS011;3547;50.774;12.918;2023-08-17T13:34:22;5.53;;;4.15;;
7013;SDS011;3547;50.774;12.918;2023-08-17T13:36:48;4.18;;;3.78;;
7013;SDS011;3547;50.774;12.918;2023-08-17T13:39:14;4.65;;;4.25;;
7013;SDS011;3547;50.774;12.918;2023-08-17T13:41:40;6.35;;;4.43;;
7013;SDS011;3547;50.774;12.918;2023-08-17T13:44:08;4.57;;;4.18;;
7013;SDS011;3547;50.774;12.918;2023-08-17T13:46:34;4.68;;;4.28;;
7013;SDS011;3547;50.774;12.918;2023-08-17T13:49:00;5.15;;;4.45;;
7013;SDS011;3547;50.774;12.918;2023-08-17T13:51:26;4.93;;;4.45;;
7013;SDS011;3547;50.774;12.918;2023-08-17T13:53:53;5.45;;;4.05;;
7013;SDS011;3547;50.774;12.918;2023-08-17T13:56:19;5.28;;;4.10;;
7013;SDS011;3547;50.774;12.918;2023-08-17T14:02:08;5.38;;;4.88;;
7013;SDS011;3547;50.774;12.918;2023-08-17T14:04:34;9.45;;;4.53;;
7013;SDS011;3547;50.774;12.918;2023-08-17T14:07:00;7.47;;;4.75;;
7013;SDS011;3547;50.774;12.918;2023-08-17T14:09:26;6.18;;;5.20;;
7013;SDS011;3547;50.774;12.918;2023-08-17T14:11:52;5.82;;;5.22;;
7013;SDS011;3547;50.774;12.918;2023-08-17T14:14:19;5.95;;;5.35;;
7013;SDS011;3547;50.774;12.918;2023-08-17T14:16:45;5.80;;;4.88;;
7013;SDS011;3547;50.774;12.918;2023-08-17T14:19:12;7.57;;;4.90;;
7013;SDS011;3547;50.774;12.918;2023-08-17T14:21:38;6.28;;;4.82;;
7013;SDS011;3547;50.774;12.918;2023-08-17T14:24:04;5.05;;;4.55;;
7013;SDS011;3547;50.774;12.918;2023-08-17T14:26:32;6.38;;;5.47;;
7013;SDS011;3547;50.774;12.918;2023-08-17T14:28:58;5.43;;;4.93;;
7013;SDS011;3547;50.774;12.918;2023-08-17T14:31:24;7.35;;;5.72;;
7013;SDS011;3547;50.774;12.918;2023-08-17T14:33:50;6.35;;;5.75;;
7013;SDS011;3547;50.774;12.918;2023-08-17T14:36:16;6.40;;;5.80;;
7013;SDS011;3547;50.774;12.918;2023-08-17T14:38:43;6.97;;;4.55;;
7013;SDS011;3547;50.774;12.918;2023-08-17T14:41:09;5.78;;;5.13;;
7013;SDS011;3547;50.774;12.918;2023-08-17T14:43:35;5.75;;;5.20;;
7013;SDS011;3547;50.774;12.918;2023-08-17T14:46:01;8.05;;;5.00;;
7013;SDS011;3547;50.774;12.918;2023-08-17T14:48:28;5.60;;;5.10;;
7013;SDS011;3547;50.774;12.918;2023-08-17T14:50:54;6.15;;;5.55;;
7013;SDS011;3547;50.774;12.918;2023-08-17T14:53:21;7.38;;;5.28;;
7013;SDS011;3547;50.774;12.918;2023-08-17T14:55:47;5.22;;;4.72;;
7013;SDS011;3547;50.774;12.918;2023-08-17T14:58:13;6.57;;;5.90;;
7013;SDS011;3547;50.774;12.918;2023-08-17T15:00:40;8.02;;;5.07;;
7013;SDS011;3547;50.774;12.918;2023-08-17T15:03:06;6.03;;;5.35;;
7013;SDS011;3547;50.774;12.918;2023-08-17T15:05:33;5.85;;;5.25;;
7013;SDS011;3547;50.774;12.918;2023-08-17T15:08:02;6.00;;;5.10;;
7013;SDS011;3547;50.774;12.918;2023-08-17T15:10:29;5.80;;;5.25;;
7013;SDS011;3547;50.774;12.918;2023-08-17T15:12:55;6.57;;;5.10;;
7013;SDS011;3547;50.774;12.918;2023-08-17T15:15:21;6.35;;;5.75;;
7013;SDS011;3547;50.774;12.918;2023-08-17T15:17:47;5.95;;;5.35;;
7013;SDS011;3547;50.774;12.918;2023-08-17T15:20:14;7.30;;;5.05;;
7013;SDS011;3547;50.774;12.918;2023-08-17T15:22:40;6.25;;;4.85;;
7013;SDS011;3547;50.774;12.918;2023-08-17T15:25:06;6.00;;;5.03;;
7013;SDS011;3547;50.774;12.918;2023-08-17T15:27:33;5.75;;;4.93;;
7013;SDS011;3547;50.774;12.918;2023-08-17T15:29:59;5.40;;;4.80;;
7013;SDS011;3547;50.774;12.918;2023-08-17T15:32:26;4.65;;;4.22;;
7013;SDS011;3547;50.774;12.918;2023-08-17T15:34:52;6.30;;;4.25;;
7013;SDS011;3547;50.774;12.918;2023-08-17T15:37:20;5.53;;;3.55;;
7013;SDS011;3547;50.774;12.918;2023-08-17T15:39:46;7.40;;;4.00;;
7013;SDS011;3547;50.774;12.918;2023-08-17T15:42:12;6.15;;;3.58;;
7013;SDS011;3547;50.774;12.918;2023-08-17T15:44:38;6.78;;;3.63;;
7013;SDS011;3547;50.774;12.918;2023-08-17T15:47:04;3.70;;;3.38;;
7013;SDS011;3547;50.774;12.918;2023-08-17T15:49:30;4.32;;;3.92;;
7013;SDS011;3547;50.774;12.918;2023-08-17T15:51:57;5.47;;;3.85;;
7013;SDS011;3547;50.774;12.918;2023-08-17T15:54:23;3.40;;;3.10;;
7013;SDS011;3547;50.774;12.918;2023-08-17T15:56:50;3.88;;;3.22;;
7013;SDS011;3547;50.774;12.918;2023-08-17T15:59:17;3.97;;;3.58;;
7013;SDS011;3547;50.774;12.918;2023-08-17T16:01:43;4.53;;;4.05;;
7013;SDS011;3547;50.774;12.918;2023-08-17T16:04:09;4.13;;;3.70;;
7013;SDS011;3547;50.774;12.918;2023-08-17T16:06:36;3.72;;;3.30;;
7013;SDS011;3547;50.774;12.918;2023-08-17T16:09:11;5.10;;;3.78;;
7013;SDS011;3547;50.774;12.918;2023-08-17T16:11:37;5.32;;;3.90;;
7013;SDS011;3547;50.774;12.918;2023-08-17T16:14:09;4.63;;;4.22;;
7013;SDS011;3547;50.774;12.918;2023-08-17T16:16:35;4.05;;;3.65;;
7013;SDS011;3547;50.774;12.918;2023-08-17T16:19:02;4.25;;;3.85;;
7013;SDS011;3547;50.774;12.918;2023-08-17T16:21:28;5.70;;;4.40;;
7013;SDS011;3547;50.774;12.918;2023-08-17T16:23:54;6.65;;;3.60;;
7013;SDS011;3547;50.774;12.918;2023-08-17T16:26:21;4.53;;;4.13;;
7013;SDS011;3547;50.774;12.918;2023-08-17T17:30:05;5.88;;;4.30;;
7013;SDS011;3547;50.774;12.918;2023-08-17T17:32:31;5.43;;;4.50;;
7013;SDS011;3547;50.774;12.918;2023-08-17T17:34:58;5.50;;;4.65;;
7013;SDS011;3547;50.774;12.918;2023-08-17T17:37:24;6.43;;;4.65;;
7013;SDS011;3547;50.774;12.918;2023-08-17T17:42:29;6.00;;;4.05;;
7013;SDS011;3547;50.774;12.918;2023-08-17T17:44:56;4.63;;;4.15;;
7013;SDS011;3547;50.774;12.918;2023-08-17T17:47:25;5.57;;;5.07;;
7013;SDS011;3547;50.774;12.918;2023-08-17T17:49:52;5.88;;;4.72;;
7013;SDS011;3547;50.774;12.918;2023-08-17T17:52:19;4.97;;;4.45;;
7013;SDS011;3547;50.774;12.918;2023-08-17T17:54:45;5.07;;;4.50;;
7013;SDS011;3547;50.774;12.918;2023-08-17T17:57:11;6.07;;;5.18;;
7013;SDS011;3547;50.774;12.918;2023-08-17T17:59:37;6.53;;;5.47;;
7013;SDS011;3547;50.774;12.918;2023-08-17T18:02:06;6.85;;;5.72;;
7013;SDS011;3547;50.774;12.918;2023-08-17T18:04:35;5.85;;;5.13;;
7013;SDS011;3547;50.774;12.918;2023-08-17T18:07:08;5.95;;;4.85;;
7013;SDS011;3547;50.774;12.918;2023-08-17T18:09:34;7.45;;;4.88;;
7013;SDS011;3547;50.774;12.918;2023-08-17T18:12:19;5.95;;;4.85;;
7013;SDS011;3547;50.774;12.918;2023-08-17T18:14:54;6.65;;;5.15;;
7013;SDS011;3547;50.774;12.918;2023-08-17T18:31:17;7.72;;;5.32;;
7013;SDS011;3547;50.774;12.918;2023-08-17T18:33:49;5.82;;;5.22;;
7013;SDS011;3547;50.774;12.918;2023-08-17T18:36:15;7.13;;;5.95;;
7013;SDS011;3547;50.774;12.918;2023-08-17T18:38:42;8.02;;;5.05;;
7013;SDS011;3547;50.774;12.918;2023-08-17T18:41:08;6.53;;;5.70;;
7013;SDS011;3547;50.774;12.918;2023-08-17T18:43:35;5.93;;;5.32;;
7013;SDS011;3547;50.774;12.918;2023-08-17T18:46:02;6.53;;;5.32;;
7013;SDS011;3547;50.774;12.918;2023-08-17T18:48:30;5.53;;;5.03;;
7013;SDS011;3547;50.774;12.918;2023-08-17T18:50:56;7.38;;;6.20;;
7013;SDS011;3547;50.774;12.918;2023-08-17T18:53:23;5.97;;;5.38;;
7013;SDS011;3547;50.774;12.918;2023-08-17T18:55:49;7.32;;;5.35;;
7013;SDS011;3547;50.774;12.918;2023-08-17T19:22:26;5.53;;;4.90;;
7013;SDS011;3547;50.774;12.918;2023-08-17T19:24:59;5.15;;;4.60;;
7013;SDS011;3547;50.774;12.918;2023-08-17T19:27:32;5.53;;;5.03;;
7013;SDS011;3547;50.774;12.918;2023-08-17T19:30:05;7.07;;;5.20;;
7013;SDS011;3547;50.774;12.918;2023-08-17T19:32:38;6.65;;;5.13;;
7013;SDS011;3547;50.774;12.918;2023-08-17T19:40:31;7.15;;;5.03;;
7013;SDS011;3547;50.774;12.918;2023-08-17T19:42:57;5.05;;;4.53;;
7013;SDS011;3547;50.774;12.918;2023-08-17T19:45:33;7.45;;;5.05;;
7013;SDS011;3547;50.774;12.918;2023-08-17T19:48:15;5.57;;;5.07;;
7013;SDS011;3547;50.774;12.918;2023-08-17T19:54:32;5.05;;;4.55;;
7013;SDS011;3547;50.774;12.918;2023-08-17T19:56:58;5.65;;;5.03;;
7013;SDS011;3547;50.774;12.918;2023-08-17T19:59:29;5.82;;;5.00;;
7013;SDS011;3547;50.774;12.918;2023-08-17T20:02:07;5.70;;;4.63;;
7013;SDS011;3547;50.774;12.918;2023-08-17T20:04:45;10.32;;;5.63;;
7013;SDS011;3547;50.774;12.918;2023-08-17T20:10:46;5.72;;;5.20;;
7013;SDS011;3547;50.774;12.918;2023-08-17T20:16:08;6.90;;;4.97;;
7013;SDS011;3547;50.774;12.918;2023-08-17T20:18:34;7.35;;;5.00;;
7013;SDS011;3547;50.774;12.918;2023-08-17T23:17:01;6.95;;;5.65;;
7013;SDS011;3547;50.774;12.918;2023-08-17T23:19:35;7.30;;;6.53;;
7013;SDS011;3547;50.774;12.918;2023-08-17T23:29:11;8.10;;;6.50;;
7013;SDS011;3547;50.774;12.918;2023-08-17T23:35:43;7.18;;;6.07;;
7013;SDS011;3547;50.774;12.918;2023-08-17T23:42:21;7.80;;;5.72;;
7013;SDS011;3547;50.774;12.918;2023-08-17T23:45:09;7.18;;;5.90;;
7013;SDS011;3547;50.774;12.918;2023-08-17T23:51:14;6.68;;;5.55;;
7013;SDS011;3547;50.774;12.918;2023-08-17T23:54:26;7.30;;;6.10;;
7013;SDS011;3547;50.774;12.918;2023-08-17T23:57:02;6.45;;;5.85;;
